createdAt,value
2023-10-03T00:03:35.077Z,18.10
2023-10-03T00:07:41.537Z,18.10
2023-10-03T00:11:45.159Z,18.10
2023-10-03T00:15:49.742Z,18.10
2023-10-03T00:19:57.010Z,18.10
2023-10-03T00:24:01.646Z,18.10
2023-10-03T00:28:07.173Z,18.10
2023-10-03T00:32:10.761Z,18.10
2023-10-03T00:36:23.592Z,18.10
2023-10-03T00:40:30.568Z,18.10
2023-10-03T00:44:34.033Z,18.10
2023-10-03T00:48:39.699Z,18.00
2023-10-03T00:52:50.656Z,17.90
2023-10-03T00:56:53.824Z,17.80
2023-10-03T01:01:00.190Z,17.80
2023-10-03T01:05:04.690Z,17.60
2023-10-03T01:09:22.308Z,17.50
2023-10-03T01:13:29.204Z,17.50
2023-10-03T01:17:34.666Z,17.50
2023-10-03T01:21:42.596Z,17.40
2023-10-03T01:25:53.871Z,17.40
2023-10-03T01:30:02.571Z,17.40
2023-10-03T01:34:06.604Z,17.30
2023-10-03T01:38:18.430Z,17.10
2023-10-03T01:42:26.451Z,17.10
2023-10-03T01:46:36.953Z,17.00
2023-10-03T01:50:46.169Z,16.90
2023-10-03T01:54:50.637Z,16.90
2023-10-03T01:58:56.575Z,17.10
2023-10-03T02:03:06.678Z,17.40
2023-10-03T02:07:10.564Z,17.60
2023-10-03T02:11:13.950Z,17.90
2023-10-03T02:15:23.389Z,18.30
2023-10-03T02:19:27.502Z,18.60
2023-10-03T02:23:31.252Z,18.90
2023-10-03T02:27:34.212Z,19.20
2023-10-03T02:31:38.818Z,19.50
2023-10-03T02:35:43.799Z,19.60
2023-10-03T02:39:47.637Z,19.70
2023-10-03T02:43:52.388Z,19.80
2023-10-03T02:48:09.048Z,19.70
2023-10-03T02:52:12.523Z,19.60
2023-10-03T02:56:15.802Z,19.40
2023-10-03T03:00:20.582Z,19.60
2023-10-03T03:04:25.435Z,19.50
2023-10-03T03:08:31.189Z,19.50
2023-10-03T03:12:37.415Z,19.50
2023-10-03T03:16:41.631Z,19.50
2023-10-03T03:20:51.089Z,19.60
2023-10-03T03:24:55.000Z,19.70
2023-10-03T03:28:58.299Z,19.80
2023-10-03T03:33:02.028Z,19.90
2023-10-03T03:41:27.223Z,20.20
2023-10-03T03:45:30.167Z,20.20
2023-10-03T03:49:33.004Z,20.30
2023-10-03T03:53:37.333Z,20.20
2023-10-03T03:57:40.367Z,20.20
2023-10-03T04:01:43.995Z,20.30
2023-10-03T04:05:48.688Z,20.30
2023-10-03T04:09:53.105Z,20.50
2023-10-03T04:13:56.942Z,20.60
2023-10-03T04:18:00.195Z,20.60
2023-10-03T04:22:03.129Z,20.80
2023-10-03T04:26:09.038Z,20.90
2023-10-03T04:30:14.180Z,21.00
2023-10-03T04:34:21.642Z,21.10
2023-10-03T04:38:24.812Z,21.10
2023-10-03T04:42:29.593Z,21.10
2023-10-03T04:46:32.570Z,21.10
2023-10-03T04:50:38.278Z,21.00
2023-10-03T04:54:41.211Z,21.10
2023-10-03T04:58:45.745Z,21.10
2023-10-03T05:02:50.293Z,21.10
2023-10-03T05:06:53.376Z,21.10
2023-10-03T05:10:56.273Z,21.20
2023-10-03T05:15:00.873Z,21.30
2023-10-03T05:19:05.491Z,21.40
2023-10-03T05:23:08.574Z,21.50
2023-10-03T05:27:12.462Z,21.60
2023-10-03T05:31:16.789Z,21.60
2023-10-03T05:35:19.845Z,21.60
2023-10-03T05:39:23.266Z,21.60
2023-10-03T05:43:26.081Z,21.60
2023-10-03T05:47:30.281Z,21.60
2023-10-03T05:51:34.435Z,21.50
2023-10-03T05:55:37.870Z,21.50
2023-10-03T05:59:40.712Z,21.50
2023-10-03T06:03:44.996Z,21.60
2023-10-03T06:07:47.920Z,21.60
2023-10-03T06:11:50.889Z,21.60
2023-10-03T06:15:54.070Z,21.60
2023-10-03T06:19:58.218Z,21.60
2023-10-03T06:24:02.132Z,21.60
2023-10-03T06:28:05.583Z,21.60
2023-10-03T06:32:08.478Z,21.50
2023-10-03T06:36:13.605Z,21.60
2023-10-03T06:40:17.252Z,21.60
2023-10-03T06:44:20.119Z,21.60
2023-10-03T06:48:25.050Z,21.60
2023-10-03T06:52:29.585Z,21.60
2023-10-03T06:56:34.182Z,21.60
2023-10-03T07:00:38.465Z,21.60
2023-10-03T07:04:41.416Z,21.60
2023-10-03T07:08:45.677Z,21.60
2023-10-03T07:12:48.550Z,21.60
2023-10-03T07:16:51.567Z,21.60
2023-10-03T07:20:56.892Z,21.60
2023-10-03T07:25:01.196Z,21.50
2023-10-03T07:29:04.388Z,21.50
2023-10-03T07:33:07.972Z,21.40
2023-10-03T07:37:11.076Z,21.40
2023-10-03T07:41:16.776Z,21.40
2023-10-03T07:45:19.958Z,21.40
2023-10-03T07:49:23.944Z,21.40
2023-10-03T07:53:30.990Z,21.40
2023-10-03T07:57:35.337Z,21.40
2023-10-03T08:01:57.617Z,21.40
2023-10-03T08:06:02.739Z,21.40
2023-10-03T08:10:06.428Z,21.40
2023-10-03T08:14:14.604Z,21.30
2023-10-03T08:18:21.180Z,21.30
2023-10-03T08:22:24.085Z,21.30
2023-10-03T08:26:28.090Z,21.30
2023-10-03T08:30:32.495Z,21.30
2023-10-03T08:34:44.990Z,21.20
2023-10-03T08:38:47.895Z,21.20
2023-10-03T08:42:53.961Z,21.20
2023-10-03T08:46:59.766Z,21.10
2023-10-03T08:51:03.265Z,21.10
2023-10-03T08:56:24.593Z,21.00
2023-10-03T09:00:27.484Z,21.00
2023-10-03T09:04:39.532Z,21.00
2023-10-03T09:08:44.807Z,21.00
2023-10-03T09:12:49.460Z,21.00
2023-10-03T09:16:53.994Z,20.90
2023-10-03T09:21:00.494Z,20.80
2023-10-03T09:25:03.707Z,20.70
2023-10-03T09:29:10.627Z,20.60
2023-10-03T09:33:17.885Z,20.50
2023-10-03T09:37:23.917Z,20.40
2023-10-03T09:41:28.380Z,20.50
2023-10-03T09:45:32.814Z,20.60
2023-10-03T09:49:39.301Z,20.70
2023-10-03T09:53:43.229Z,20.80
2023-10-03T09:57:47.850Z,20.80
2023-10-03T10:01:56.117Z,20.80
2023-10-03T10:06:13.823Z,20.70
2023-10-03T10:10:20.849Z,20.80
2023-10-03T10:14:23.803Z,20.90
2023-10-03T10:19:03.232Z,20.90
2023-10-03T10:23:18.027Z,20.90
2023-10-03T10:27:22.521Z,20.90
2023-10-03T10:31:26.584Z,20.90
2023-10-03T10:35:56.345Z,20.80
2023-10-03T10:40:12.895Z,20.90
2023-10-03T10:44:17.947Z,21.00
2023-10-03T10:48:40.774Z,20.90
2023-10-03T10:52:57.120Z,20.80
2023-10-03T10:57:01.564Z,20.90
2023-10-03T11:01:06.972Z,20.90
2023-10-03T11:05:11.980Z,20.90
2023-10-03T11:09:21.396Z,20.90
2023-10-03T11:13:25.494Z,20.70
2023-10-03T11:17:29.161Z,20.70
2023-10-03T11:21:33.594Z,20.70
2023-10-03T11:25:37.787Z,20.80
2023-10-03T11:29:44.652Z,21.00
2023-10-03T11:33:48.762Z,21.10
2023-10-03T11:37:52.474Z,21.20
2023-10-03T11:41:57.695Z,21.20
2023-10-03T11:46:00.794Z,21.10
2023-10-03T11:50:07.349Z,21.10
2023-10-03T11:54:10.285Z,20.90
2023-10-03T11:58:14.579Z,20.60
2023-10-03T12:02:20.320Z,20.10
2023-10-03T12:06:25.009Z,19.50
2023-10-03T12:10:31.833Z,18.60
2023-10-03T12:14:36.513Z,18.10
2023-10-03T12:18:39.757Z,17.70
2023-10-03T12:22:43.079Z,17.40
2023-10-03T12:26:46.047Z,17.40
2023-10-03T12:30:51.395Z,17.40
2023-10-03T12:34:54.239Z,17.30
2023-10-03T12:38:57.203Z,17.30
2023-10-03T12:43:00.007Z,17.30
2023-10-03T12:47:05.333Z,17.30
2023-10-03T12:51:09.620Z,17.20
2023-10-03T12:55:13.049Z,17.20
2023-10-03T12:59:18.938Z,17.20
2023-10-03T13:03:23.376Z,17.20
2023-10-03T13:07:26.531Z,17.30
2023-10-03T13:11:29.386Z,17.30
2023-10-03T13:15:32.764Z,17.40
2023-10-03T13:19:37.541Z,17.40
2023-10-03T13:23:42.969Z,17.30
2023-10-03T13:27:46.759Z,17.30
2023-10-03T13:31:49.939Z,17.20
2023-10-03T13:35:55.690Z,17.00
2023-10-03T13:39:58.661Z,16.80
2023-10-03T13:44:01.484Z,16.70
2023-10-03T13:48:05.389Z,16.60
2023-10-03T13:52:09.641Z,16.50
2023-10-03T13:56:12.628Z,16.40
2023-10-03T14:00:16.515Z,16.30
2023-10-03T14:04:19.568Z,16.30
2023-10-03T14:08:23.753Z,16.20
2023-10-03T14:12:27.722Z,16.20
2023-10-03T14:16:30.766Z,16.10
2023-10-03T14:20:33.889Z,16.10
2023-10-03T14:24:38.250Z,16.10
2023-10-03T14:28:41.377Z,16.10
2023-10-03T14:32:44.847Z,16.10
2023-10-03T14:36:47.963Z,16.10
2023-10-03T14:40:52.201Z,16.10
2023-10-03T14:44:55.036Z,16.10
2023-10-03T14:48:57.983Z,16.00
2023-10-03T14:53:01.927Z,16.00
2023-10-03T14:57:06.322Z,16.00
2023-10-03T15:01:13.575Z,15.90
2023-10-03T15:05:17.324Z,15.60
2023-10-03T15:09:21.316Z,15.40
2023-10-03T15:13:26.812Z,15.30
2023-10-03T15:17:31.714Z,15.30
2023-10-03T15:21:34.910Z,15.20
2023-10-03T15:25:39.397Z,15.10
2023-10-03T15:29:43.710Z,15.00
2023-10-03T15:33:46.620Z,14.90
2023-10-03T15:37:50.486Z,14.80
2023-10-03T15:41:54.405Z,14.80
2023-10-03T15:46:01.521Z,14.60
2023-10-03T15:50:05.350Z,14.60
2023-10-03T15:54:09.233Z,14.60
2023-10-03T15:58:12.257Z,14.50
2023-10-03T16:02:16.751Z,14.50
2023-10-03T16:06:19.731Z,14.50
2023-10-03T16:10:24.832Z,14.50
2023-10-03T16:14:29.706Z,14.40
2023-10-03T16:18:34.799Z,14.40
2023-10-03T16:22:37.843Z,14.30
2023-10-03T16:26:42.032Z,14.20
2023-10-03T16:30:45.117Z,14.20
2023-10-03T16:34:49.417Z,14.20
2023-10-03T16:38:53.256Z,14.10
2023-10-03T16:42:56.180Z,14.20
2023-10-03T16:46:59.447Z,14.20
2023-10-03T16:51:04.158Z,14.20
2023-10-03T16:55:07.572Z,14.20
2023-10-03T16:59:10.817Z,14.10
2023-10-03T17:03:13.883Z,14.10
2023-10-03T17:07:19.074Z,14.00
2023-10-03T17:11:22.297Z,14.00
2023-10-03T17:15:25.490Z,13.90
2023-10-03T17:19:28.842Z,13.90
2023-10-03T17:23:33.867Z,13.90
2023-10-03T17:27:37.326Z,13.90
2023-10-03T17:31:41.694Z,13.80
2023-10-03T17:35:45.976Z,13.80
2023-10-03T17:39:50.583Z,13.80
2023-10-03T17:43:53.548Z,13.70
2023-10-03T17:47:57.779Z,13.70
2023-10-03T17:52:00.823Z,13.70
2023-10-03T17:56:05.444Z,13.70
2023-10-03T18:00:12.264Z,13.60
2023-10-03T18:04:15.455Z,13.60
2023-10-03T18:08:18.666Z,13.50
2023-10-03T18:12:24.405Z,13.50
2023-10-03T18:16:27.462Z,13.40
2023-10-03T18:20:30.600Z,13.40
2023-10-03T18:24:33.738Z,13.30
2023-10-03T18:28:37.957Z,13.30
2023-10-03T18:32:41.626Z,13.20
2023-10-03T18:36:44.691Z,13.10
2023-10-03T18:40:47.931Z,13.10
2023-10-03T18:44:52.222Z,13.10
2023-10-03T18:48:57.103Z,13.00
2023-10-03T18:53:01.236Z,13.00
2023-10-03T18:57:05.333Z,13.00
2023-10-03T19:01:17.932Z,13.00
2023-10-03T19:05:21.830Z,12.90
2023-10-03T19:09:25.556Z,12.90
2023-10-03T19:13:29.163Z,12.90
2023-10-03T19:17:33.926Z,12.90
2023-10-03T19:21:37.821Z,12.90
2023-10-03T19:25:41.133Z,12.90
2023-10-03T19:29:44.158Z,12.90
2023-10-03T19:33:48.806Z,12.90
2023-10-03T19:37:54.761Z,12.90
2023-10-03T19:41:59.424Z,12.90
2023-10-03T19:46:03.365Z,12.90
2023-10-03T19:50:08.772Z,12.90
2023-10-03T19:54:12.833Z,12.80
2023-10-03T19:58:16.178Z,12.80
2023-10-03T20:02:19.278Z,12.80
2023-10-03T20:06:24.413Z,12.80
2023-10-03T20:10:29.362Z,12.80
2023-10-03T20:14:32.281Z,12.80
2023-10-03T20:18:35.209Z,12.90
2023-10-03T20:22:41.974Z,13.00
2023-10-03T20:26:44.866Z,13.00
2023-10-03T20:30:47.806Z,13.00
2023-10-03T20:34:50.764Z,13.00
2023-10-03T20:38:55.660Z,13.00
2023-10-03T20:42:59.240Z,13.00
2023-10-03T20:47:05.642Z,13.00
2023-10-03T20:51:18.367Z,13.00
2023-10-03T20:55:23.996Z,13.00
2023-10-03T20:59:27.030Z,13.10
2023-10-03T21:03:30.271Z,13.10
2023-10-03T21:07:33.347Z,13.10
2023-10-03T21:11:37.745Z,13.20
2023-10-03T21:15:40.755Z,13.20
2023-10-03T21:19:43.671Z,13.20
2023-10-03T21:23:46.682Z,13.20
2023-10-03T21:27:51.121Z,13.20
2023-10-03T21:31:54.135Z,13.20
2023-10-03T21:35:57.096Z,13.20
2023-10-03T21:40:01.189Z,13.20
2023-10-03T21:44:06.095Z,13.20
2023-10-03T21:48:10.261Z,13.20
2023-10-03T21:52:13.811Z,13.20
2023-10-03T21:56:18.376Z,13.20
2023-10-03T22:00:26.877Z,13.20
2023-10-03T22:04:29.821Z,13.20
2023-10-03T22:08:33.439Z,13.10
2023-10-03T22:12:36.561Z,13.10
2023-10-03T22:16:42.450Z,13.10
2023-10-03T22:20:45.576Z,13.00
2023-10-03T22:24:48.511Z,13.00
2023-10-03T22:28:51.434Z,12.90
2023-10-03T22:32:58.143Z,12.90
2023-10-03T22:37:01.301Z,12.90
2023-10-03T22:41:07.336Z,12.90
2023-10-03T22:45:10.935Z,12.90
2023-10-03T22:49:15.168Z,12.90
2023-10-03T22:53:18.130Z,12.90
2023-10-03T22:57:21.111Z,12.80
2023-10-03T23:01:24.358Z,12.80
2023-10-03T23:05:29.726Z,12.80
2023-10-03T23:09:32.864Z,12.80
2023-10-03T23:13:35.948Z,12.80
2023-10-03T23:17:39.795Z,12.80
2023-10-03T23:21:44.842Z,12.80
2023-10-03T23:25:47.727Z,12.70
2023-10-03T23:29:50.697Z,12.80
2023-10-03T23:33:53.686Z,12.80
2023-10-03T23:37:58.026Z,12.70
2023-10-03T23:42:01.239Z,12.70
2023-10-03T23:46:08.108Z,12.70
2023-10-03T23:50:12.407Z,12.70
2023-10-03T23:54:17.851Z,12.70
2023-10-03T23:58:21.014Z,12.70
